createdAt,value
2019-05-16T00:01:04.226Z,7.06
2019-05-16T00:06:10.042Z,7.03
2019-05-16T00:11:15.108Z,7.02
2019-05-16T00:16:20.258Z,6.99
2019-05-16T00:21:25.710Z,6.99
2019-05-16T00:26:31.461Z,6.96
2019-05-16T00:31:38.198Z,6.96
2019-05-16T00:36:43.465Z,7.02
2019-05-16T00:41:48.910Z,6.87
2019-05-16T00:46:54.392Z,6.95
2019-05-16T00:51:59.483Z,6.95
2019-05-16T00:57:08.472Z,6.79
2019-05-16T01:02:13.512Z,6.88
2019-05-16T01:07:18.947Z,6.71
2019-05-16T01:12:24.405Z,6.68
2019-05-16T01:17:29.409Z,6.67
2019-05-16T01:22:35.127Z,6.47
2019-05-16T01:27:40.193Z,6.42
2019-05-16T01:32:45.651Z,6.38
2019-05-16T01:37:50.741Z,6.52
2019-05-16T01:42:57.843Z,6.36
2019-05-16T01:48:03.336Z,6.22
2019-05-16T01:53:08.809Z,6.11
2019-05-16T01:58:13.965Z,6.22
2019-05-16T02:03:19.239Z,6.12
2019-05-16T02:08:24.323Z,6.23
2019-05-16T02:13:29.325Z,6.20
2019-05-16T02:18:34.471Z,6.15
2019-05-16T02:23:39.833Z,6.22
2019-05-16T02:28:45.066Z,6.23
2019-05-16T02:33:53.666Z,6.33
2019-05-16T02:39:01.846Z,6.30
2019-05-16T02:44:05.953Z,6.13
2019-05-16T02:49:11.879Z,6.33
2019-05-16T02:54:21.500Z,6.32
2019-05-16T02:59:24.818Z,6.24
2019-05-16T03:04:30.823Z,6.37
2019-05-16T03:09:36.253Z,6.28
2019-05-16T03:14:42.842Z,6.30
2019-05-16T03:19:51.145Z,6.29
2019-05-16T03:24:56.569Z,6.44
2019-05-16T03:30:02.515Z,6.37
2019-05-16T03:35:14.525Z,6.38
2019-05-16T03:40:17.837Z,6.10
2019-05-16T03:45:23.078Z,5.97
2019-05-16T03:50:30.664Z,6.13
2019-05-16T03:55:35.473Z,6.46
2019-05-16T04:00:52.320Z,6.55
2019-05-16T04:05:57.317Z,6.42
2019-05-16T04:11:03.557Z,6.52
2019-05-16T04:16:11.826Z,6.63
2019-05-16T04:21:17.862Z,6.56
2019-05-16T04:26:23.569Z,6.69
2019-05-16T04:31:30.808Z,6.56
2019-05-16T04:36:35.610Z,6.85
2019-05-16T04:41:41.148Z,6.88
2019-05-16T04:46:46.631Z,7.09
2019-05-16T04:51:52.110Z,6.92
2019-05-16T04:57:01.241Z,7.01
2019-05-16T05:02:04.252Z,7.23
2019-05-16T05:07:11.165Z,7.06
2019-05-16T05:12:16.110Z,7.17
2019-05-16T05:17:21.856Z,7.51
2019-05-16T05:22:27.090Z,7.31
2019-05-16T05:27:32.676Z,7.37
2019-05-16T05:32:38.340Z,7.51
2019-05-16T05:37:43.679Z,7.71
2019-05-16T05:42:50.492Z,7.88
2019-05-16T05:47:56.158Z,8.16
2019-05-16T05:53:01.828Z,8.24
2019-05-16T05:58:06.930Z,8.14
2019-05-16T06:03:12.342Z,8.29
2019-05-16T06:08:19.933Z,8.57
2019-05-16T06:13:25.410Z,8.48
2019-05-16T06:18:30.755Z,8.55
2019-05-16T06:23:36.218Z,8.52
2019-05-16T06:28:41.965Z,8.77
2019-05-16T06:33:50.043Z,8.59
2019-05-16T06:38:54.474Z,8.75
2019-05-16T06:44:00.074Z,8.45
2019-05-16T06:49:05.213Z,8.77
2019-05-16T06:54:10.631Z,8.99
2019-05-16T06:59:16.091Z,8.68
2019-05-16T07:04:21.669Z,8.92
2019-05-16T07:09:27.302Z,8.92
2019-05-16T07:14:33.014Z,9.35
2019-05-16T07:19:40.629Z,9.03
2019-05-16T07:24:45.875Z,9.26
2019-05-16T07:29:51.170Z,9.26
2019-05-16T07:34:56.233Z,9.31
2019-05-16T07:40:16.137Z,8.98
2019-05-16T07:45:11.366Z,9.12
2019-05-16T07:50:16.913Z,9.46
2019-05-16T07:55:22.203Z,9.83
2019-05-16T08:00:45.752Z,9.88
2019-05-16T08:05:34.766Z,9.27
2019-05-16T08:10:45.526Z,9.02
2019-05-16T08:15:47.010Z,9.14
2019-05-16T08:20:52.865Z,9.47
2019-05-16T08:26:00.897Z,9.67
2019-05-16T08:31:05.555Z,10.39
2019-05-16T08:36:12.014Z,10.73
2019-05-16T08:41:21.926Z,10.90
2019-05-16T08:46:24.909Z,10.43
2019-05-16T08:51:33.189Z,10.01
2019-05-16T08:56:43.760Z,9.88
2019-05-16T09:01:52.016Z,10.06
2019-05-16T09:06:52.665Z,10.50
2019-05-16T09:11:57.878Z,10.54
2019-05-16T09:17:03.296Z,10.27
2019-05-16T09:22:08.490Z,11.03
2019-05-16T09:27:13.805Z,10.63
2019-05-16T09:32:22.042Z,11.40
2019-05-16T09:37:26.805Z,10.86
2019-05-16T09:42:32.059Z,11.13
2019-05-16T09:47:38.943Z,10.62
2019-05-16T09:52:44.143Z,10.70
2019-05-16T09:57:49.278Z,11.42
2019-05-16T10:02:54.695Z,11.58
2019-05-16T10:07:59.926Z,11.58
2019-05-16T10:13:06.807Z,11.84
2019-05-16T10:18:12.523Z,11.76
2019-05-16T10:23:18.185Z,11.02
2019-05-16T10:28:27.073Z,11.87
2019-05-16T10:33:31.367Z,12.04
2019-05-16T10:38:37.431Z,12.04
2019-05-16T10:43:43.322Z,11.71
2019-05-16T10:48:48.724Z,11.86
2019-05-16T10:54:09.490Z,12.00
2019-05-16T10:59:45.895Z,11.68
2019-05-16T11:04:08.831Z,11.71
2019-05-16T11:09:14.155Z,11.86
2019-05-16T11:14:19.769Z,11.87
2019-05-16T11:19:28.077Z,11.84
2019-05-16T11:24:31.992Z,12.58
2019-05-16T11:29:37.715Z,12.35
2019-05-16T11:34:42.798Z,12.43
2019-05-16T11:39:48.795Z,11.99
2019-05-16T11:44:53.949Z,12.06
2019-05-16T11:49:59.412Z,12.53
2019-05-16T11:55:07.404Z,12.73
2019-05-16T12:00:17.465Z,12.00
2019-05-16T12:05:21.157Z,11.92
2019-05-16T12:10:27.123Z,12.37
2019-05-16T12:15:32.653Z,12.21
2019-05-16T12:20:38.575Z,13.03
2019-05-16T12:25:43.612Z,13.54
2019-05-16T12:30:48.799Z,13.59
2019-05-16T12:35:54.403Z,14.25
2019-05-16T12:40:59.829Z,13.87
2019-05-16T12:46:07.196Z,13.92
2019-05-16T12:51:11.998Z,13.52
2019-05-16T12:56:17.690Z,12.19
2019-05-16T13:01:30.670Z,12.70
2019-05-16T13:06:31.062Z,13.24
2019-05-16T13:11:37.758Z,13.68
2019-05-16T13:16:43.948Z,13.69
2019-05-16T13:21:49.106Z,13.44
2019-05-16T13:26:57.086Z,13.92
2019-05-16T13:32:02.556Z,13.59
2019-05-16T13:37:08.234Z,13.94
2019-05-16T13:42:13.423Z,14.15
2019-05-16T13:47:19.051Z,13.99
2019-05-16T13:52:28.002Z,14.08
2019-05-16T13:57:31.636Z,13.91
2019-05-16T14:02:37.789Z,14.17
2019-05-16T14:07:43.487Z,14.61
2019-05-16T14:12:50.351Z,14.48
2019-05-16T14:17:56.829Z,14.52
2019-05-16T14:23:01.983Z,14.10
2019-05-16T14:28:07.827Z,14.02
2019-05-16T14:33:14.191Z,13.94
2019-05-16T14:38:19.694Z,13.21
2019-05-16T14:43:27.164Z,13.47
2019-05-16T14:48:32.263Z,13.89
2019-05-16T14:53:38.004Z,13.58
2019-05-16T14:58:43.794Z,13.12
2019-05-16T15:03:48.941Z,13.05
2019-05-16T15:08:56.622Z,13.00
2019-05-16T15:14:01.302Z,12.66
2019-05-16T15:19:08.191Z,12.34
2019-05-16T15:24:13.412Z,12.70
2019-05-16T15:29:19.043Z,12.24
2019-05-16T15:34:29.864Z,12.46
2019-05-16T15:39:31.511Z,12.14
2019-05-16T15:44:36.976Z,12.49
2019-05-16T15:49:42.320Z,12.55
2019-05-16T15:54:49.240Z,12.22
2019-05-16T15:59:54.636Z,12.38
2019-05-16T16:05:00.218Z,11.91
2019-05-16T16:10:07.011Z,11.82
2019-05-16T16:15:12.805Z,11.75
2019-05-16T16:20:18.122Z,11.70
2019-05-16T16:25:23.191Z,11.68
2019-05-16T16:30:29.097Z,11.49
2019-05-16T16:35:37.575Z,11.23
2019-05-16T16:40:41.718Z,11.25
2019-05-16T16:45:47.888Z,11.08
2019-05-16T16:50:53.852Z,11.07
2019-05-16T16:55:59.619Z,10.96
2019-05-16T17:01:07.333Z,10.64
2019-05-16T17:06:11.608Z,10.67
2019-05-16T17:11:16.809Z,10.63
2019-05-16T17:16:26.121Z,10.28
2019-05-16T17:21:29.985Z,10.37
2019-05-16T17:26:37.652Z,10.25
2019-05-16T17:31:41.877Z,10.18
2019-05-16T17:36:47.247Z,9.95
2019-05-16T17:41:54.908Z,9.89
2019-05-16T17:46:59.193Z,9.77
2019-05-16T17:52:06.787Z,9.80
2019-05-16T17:57:11.471Z,9.72
2019-05-16T18:02:17.294Z,9.69
2019-05-16T18:07:22.480Z,9.69
2019-05-16T18:12:27.704Z,9.66
2019-05-16T18:17:32.919Z,9.64
2019-05-16T18:22:38.497Z,9.47
2019-05-16T18:27:43.572Z,9.42
2019-05-16T18:32:49.218Z,9.47
2019-05-16T18:37:56.876Z,9.54
2019-05-16T18:43:01.610Z,9.46
2019-05-16T18:48:07.698Z,9.42
2019-05-16T18:53:13.173Z,9.35
2019-05-16T18:58:18.240Z,9.27
2019-05-16T19:03:23.720Z,9.40
2019-05-16T19:08:29.283Z,9.19
2019-05-16T19:13:36.905Z,9.16
2019-05-16T19:18:42.328Z,9.17
2019-05-16T19:23:47.686Z,9.09
2019-05-16T19:28:53.172Z,9.07
2019-05-16T19:33:58.403Z,9.09
2019-05-16T19:39:06.249Z,9.00
2019-05-16T19:44:12.008Z,9.05
2019-05-16T19:49:17.373Z,9.06
2019-05-16T19:54:22.860Z,9.00
2019-05-16T19:59:28.911Z,9.04
2019-05-16T20:04:36.474Z,8.94
2019-05-16T20:09:41.672Z,9.04
2019-05-16T20:14:47.382Z,9.00
2019-05-16T20:19:53.522Z,8.92
2019-05-16T20:24:58.880Z,8.72
2019-05-16T20:30:06.677Z,8.70
2019-05-16T20:35:11.931Z,8.73
2019-05-16T20:40:17.400Z,8.72
2019-05-16T20:45:22.895Z,8.74
2019-05-16T20:50:28.344Z,8.67
2019-05-16T20:55:33.435Z,8.73
2019-05-16T21:00:39.149Z,8.81
2019-05-16T21:05:47.653Z,8.80
2019-05-16T21:10:51.153Z,8.69
2019-05-16T21:15:57.680Z,8.67
2019-05-16T21:21:02.971Z,8.61
2019-05-16T21:26:08.708Z,8.65
2019-05-16T21:31:16.386Z,8.59
2019-05-16T21:36:21.608Z,8.71
2019-05-16T21:41:27.440Z,8.59
2019-05-16T21:46:32.635Z,8.62
2019-05-16T21:51:37.770Z,8.61
2019-05-16T21:56:43.468Z,8.55
2019-05-16T22:01:49.149Z,8.59
2019-05-16T22:06:56.612Z,8.57
2019-05-16T22:12:02.048Z,8.51
2019-05-16T22:17:07.554Z,8.54
2019-05-16T22:22:13.075Z,8.50
2019-05-16T22:27:18.999Z,8.50
2019-05-16T22:32:27.051Z,8.60
2019-05-16T22:37:31.614Z,8.47
2019-05-16T22:42:37.581Z,8.42
2019-05-16T22:47:43.041Z,8.41
2019-05-16T22:52:49.306Z,8.29
2019-05-16T22:57:56.440Z,8.18
2019-05-16T23:03:01.766Z,8.16
2019-05-16T23:08:09.972Z,8.07
2019-05-16T23:13:16.999Z,7.96
2019-05-16T23:18:22.103Z,7.87
2019-05-16T23:23:27.383Z,7.68
2019-05-16T23:28:32.465Z,7.66
2019-05-16T23:33:38.228Z,7.82
2019-05-16T23:38:43.386Z,7.71
2019-05-16T23:43:48.732Z,7.73
2019-05-16T23:48:56.417Z,7.81
2019-05-16T23:54:01.240Z,7.65
2019-05-16T23:59:06.802Z,7.74
